sensor_id;sensor_type;location;lat;lon;timestamp;P1;durP1;ratioP1;P2;durP2;ratioP2
20306;SDS011;10312;52.434;13.206;2022-12-07T00:03:37;12.95;;;7.90;;
20306;SDS011;10312;52.434;13.206;2022-12-07T00:06:05;13.75;;;7.47;;
20306;SDS011;10312;52.434;13.206;2022-12-07T00:08:34;14.00;;;7.88;;
20306;SDS011;10312;52.434;13.206;2022-12-07T00:11:02;12.45;;;7.60;;
20306;SDS011;10312;52.434;13.206;2022-12-07T00:13:33;17.38;;;8.10;;
20306;SDS011;10312;52.434;13.206;2022-12-07T00:16:04;11.30;;;6.47;;
20306;SDS011;10312;52.434;13.206;2022-12-07T00:18:33;12.05;;;6.70;;
20306;SDS011;10312;52.434;13.206;2022-12-07T00:21:04;11.13;;;6.63;;
20306;SDS011;10312;52.434;13.206;2022-12-07T00:23:41;9.93;;;6.50;;
20306;SDS011;10312;52.434;13.206;2022-12-07T00:26:13;10.85;;;6.55;;
20306;SDS011;10312;52.434;13.206;2022-12-07T00:28:40;11.07;;;6.40;;
20306;SDS011;10312;52.434;13.206;2022-12-07T00:31:11;9.45;;;5.43;;
20306;SDS011;10312;52.434;13.206;2022-12-07T00:33:39;8.55;;;5.70;;
20306;SDS011;10312;52.434;13.206;2022-12-07T00:36:10;10.27;;;6.35;;
20306;SDS011;10312;52.434;13.206;2022-12-07T00:38:42;9.80;;;5.88;;
20306;SDS011;10312;52.434;13.206;2022-12-07T00:41:13;8.65;;;5.30;;
20306;SDS011;10312;52.434;13.206;2022-12-07T00:43:41;9.52;;;5.57;;
20306;SDS011;10312;52.434;13.206;2022-12-07T00:46:09;8.90;;;5.68;;
20306;SDS011;10312;52.434;13.206;2022-12-07T00:48:36;8.77;;;5.45;;
20306;SDS011;10312;52.434;13.206;2022-12-07T00:51:03;7.32;;;4.93;;
20306;SDS011;10312;52.434;13.206;2022-12-07T00:53:30;7.15;;;4.45;;
20306;SDS011;10312;52.434;13.206;2022-12-07T00:56:08;7.13;;;4.25;;
20306;SDS011;10312;52.434;13.206;2022-12-07T00:58:37;7.07;;;4.25;;
20306;SDS011;10312;52.434;13.206;2022-12-07T01:01:05;8.00;;;5.18;;
20306;SDS011;10312;52.434;13.206;2022-12-07T01:03:33;7.88;;;4.25;;
20306;SDS011;10312;52.434;13.206;2022-12-07T01:06:01;7.57;;;4.15;;
20306;SDS011;10312;52.434;13.206;2022-12-07T01:08:28;6.40;;;4.10;;
20306;SDS011;10312;52.434;13.206;2022-12-07T01:10:59;6.40;;;3.72;;
20306;SDS011;10312;52.434;13.206;2022-12-07T01:13:31;7.18;;;4.05;;
20306;SDS011;10312;52.434;13.206;2022-12-07T01:15:59;6.45;;;4.20;;
20306;SDS011;10312;52.434;13.206;2022-12-07T01:18:27;11.07;;;4.70;;
20306;SDS011;10312;52.434;13.206;2022-12-07T01:20:58;6.35;;;4.07;;
20306;SDS011;10312;52.434;13.206;2022-12-07T01:23:33;7.53;;;4.50;;
20306;SDS011;10312;52.434;13.206;2022-12-07T01:26:03;5.80;;;3.85;;
20306;SDS011;10312;52.434;13.206;2022-12-07T01:28:31;6.88;;;4.35;;
20306;SDS011;10312;52.434;13.206;2022-12-07T01:31:00;6.35;;;4.00;;
20306;SDS011;10312;52.434;13.206;2022-12-07T01:33:32;6.55;;;4.43;;
20306;SDS011;10312;52.434;13.206;2022-12-07T01:36:23;7.30;;;4.00;;
20306;SDS011;10312;52.434;13.206;2022-12-07T01:38:49;8.10;;;4.57;;
20306;SDS011;10312;52.434;13.206;2022-12-07T01:41:20;6.38;;;4.05;;
20306;SDS011;10312;52.434;13.206;2022-12-07T01:46:34;6.00;;;3.95;;
20306;SDS011;10312;52.434;13.206;2022-12-07T01:49:01;6.95;;;4.25;;
20306;SDS011;10312;52.434;13.206;2022-12-07T01:51:28;7.18;;;4.32;;
20306;SDS011;10312;52.434;13.206;2022-12-07T01:53:55;6.57;;;4.22;;
20306;SDS011;10312;52.434;13.206;2022-12-07T01:56:23;5.40;;;3.50;;
20306;SDS011;10312;52.434;13.206;2022-12-07T01:58:51;9.45;;;4.80;;
20306;SDS011;10312;52.434;13.206;2022-12-07T02:01:19;6.88;;;4.25;;
20306;SDS011;10312;52.434;13.206;2022-12-07T02:03:46;8.98;;;4.80;;
20306;SDS011;10312;52.434;13.206;2022-12-07T02:06:20;8.07;;;4.30;;
20306;SDS011;10312;52.434;13.206;2022-12-07T02:08:49;6.60;;;4.32;;
20306;SDS011;10312;52.434;13.206;2022-12-07T02:11:17;7.88;;;4.53;;
20306;SDS011;10312;52.434;13.206;2022-12-07T02:13:43;8.68;;;4.75;;
20306;SDS011;10312;52.434;13.206;2022-12-07T02:25:04;11.63;;;4.55;;
20306;SDS011;10312;52.434;13.206;2022-12-07T02:27:37;8.93;;;4.88;;
20306;SDS011;10312;52.434;13.206;2022-12-07T02:30:10;7.00;;;3.92;;
20306;SDS011;10312;52.434;13.206;2022-12-07T02:32:56;6.80;;;4.63;;
20306;SDS011;10312;52.434;13.206;2022-12-07T02:35:32;7.03;;;4.63;;
20306;SDS011;10312;52.434;13.206;2022-12-07T02:40:55;8.45;;;4.63;;
20306;SDS011;10312;52.434;13.206;2022-12-07T02:43:28;7.13;;;4.30;;
20306;SDS011;10312;52.434;13.206;2022-12-07T02:45:57;7.65;;;4.70;;
20306;SDS011;10312;52.434;13.206;2022-12-07T02:48:26;8.15;;;4.93;;
20306;SDS011;10312;52.434;13.206;2022-12-07T02:50:53;9.13;;;4.53;;
20306;SDS011;10312;52.434;13.206;2022-12-07T02:53:40;8.77;;;4.90;;
20306;SDS011;10312;52.434;13.206;2022-12-07T02:59:20;9.13;;;5.07;;
20306;SDS011;10312;52.434;13.206;2022-12-07T03:16:17;10.75;;;5.03;;
20306;SDS011;10312;52.434;13.206;2022-12-07T03:18:51;9.88;;;5.57;;
20306;SDS011;10312;52.434;13.206;2022-12-07T03:21:27;10.18;;;5.43;;
20306;SDS011;10312;52.434;13.206;2022-12-07T03:24:04;9.80;;;5.38;;
20306;SDS011;10312;52.434;13.206;2022-12-07T03:26:35;10.30;;;5.88;;
20306;SDS011;10312;52.434;13.206;2022-12-07T03:29:22;9.45;;;6.07;;
20306;SDS011;10312;52.434;13.206;2022-12-07T03:31:55;9.57;;;6.00;;
20306;SDS011;10312;52.434;13.206;2022-12-07T03:37:19;12.68;;;5.88;;
20306;SDS011;10312;52.434;13.206;2022-12-07T03:40:02;9.93;;;5.82;;
20306;SDS011;10312;52.434;13.206;2022-12-07T03:42:30;10.68;;;5.90;;
20306;SDS011;10312;52.434;13.206;2022-12-07T03:44:58;12.63;;;7.18;;
20306;SDS011;10312;52.434;13.206;2022-12-07T03:47:40;13.93;;;6.90;;
20306;SDS011;10312;52.434;13.206;2022-12-07T03:52:47;11.07;;;6.47;;
20306;SDS011;10312;52.434;13.206;2022-12-07T03:55:22;12.40;;;6.97;;
20306;SDS011;10312;52.434;13.206;2022-12-07T03:57:53;12.10;;;6.68;;
20306;SDS011;10312;52.434;13.206;2022-12-07T04:00:22;14.13;;;7.65;;
20306;SDS011;10312;52.434;13.206;2022-12-07T04:02:51;12.50;;;7.45;;
20306;SDS011;10312;52.434;13.206;2022-12-07T04:05:19;13.27;;;7.93;;
20306;SDS011;10312;52.434;13.206;2022-12-07T04:07:46;15.48;;;8.00;;
20306;SDS011;10312;52.434;13.206;2022-12-07T04:10:13;13.70;;;7.75;;
20306;SDS011;10312;52.434;13.206;2022-12-07T04:12:40;16.85;;;8.15;;
20306;SDS011;10312;52.434;13.206;2022-12-07T04:15:07;16.13;;;8.55;;
20306;SDS011;10312;52.434;13.206;2022-12-07T04:17:34;14.63;;;8.20;;
20306;SDS011;10312;52.434;13.206;2022-12-07T04:20:01;15.75;;;8.85;;
20306;SDS011;10312;52.434;13.206;2022-12-07T04:22:28;15.90;;;8.50;;
20306;SDS011;10312;52.434;13.206;2022-12-07T04:24:55;18.30;;;9.30;;
20306;SDS011;10312;52.434;13.206;2022-12-07T04:27:22;16.92;;;9.63;;
20306;SDS011;10312;52.434;13.206;2022-12-07T04:29:49;18.42;;;10.40;;
20306;SDS011;10312;52.434;13.206;2022-12-07T04:32:15;23.30;;;11.00;;
20306;SDS011;10312;52.434;13.206;2022-12-07T04:34:42;17.92;;;10.27;;
20306;SDS011;10312;52.434;13.206;2022-12-07T04:37:09;20.88;;;11.27;;
20306;SDS011;10312;52.434;13.206;2022-12-07T04:39:36;25.15;;;12.88;;
20306;SDS011;10312;52.434;13.206;2022-12-07T04:42:03;18.85;;;10.93;;
20306;SDS011;10312;52.434;13.206;2022-12-07T04:44:30;21.85;;;11.48;;
20306;SDS011;10312;52.434;13.206;2022-12-07T04:46:57;23.27;;;11.57;;
20306;SDS011;10312;52.434;13.206;2022-12-07T04:49:24;23.08;;;12.00;;
20306;SDS011;10312;52.434;13.206;2022-12-07T04:51:51;21.88;;;11.85;;
20306;SDS011;10312;52.434;13.206;2022-12-07T04:54:18;22.95;;;12.43;;
20306;SDS011;10312;52.434;13.206;2022-12-07T04:56:44;23.00;;;11.90;;
20306;SDS011;10312;52.434;13.206;2022-12-07T04:59:12;22.17;;;12.63;;
20306;SDS011;10312;52.434;13.206;2022-12-07T05:01:38;24.73;;;13.13;;
20306;SDS011;10312;52.434;13.206;2022-12-07T05:04:05;24.85;;;13.50;;
20306;SDS011;10312;52.434;13.206;2022-12-07T05:06:34;23.20;;;13.00;;
20306;SDS011;10312;52.434;13.206;2022-12-07T05:09:01;24.38;;;12.88;;
20306;SDS011;10312;52.434;13.206;2022-12-07T05:11:28;25.73;;;13.50;;
20306;SDS011;10312;52.434;13.206;2022-12-07T05:14:12;23.58;;;12.70;;
20306;SDS011;10312;52.434;13.206;2022-12-07T05:16:39;25.63;;;13.10;;
20306;SDS011;10312;52.434;13.206;2022-12-07T05:19:07;22.23;;;12.40;;
20306;SDS011;10312;52.434;13.206;2022-12-07T05:21:34;23.40;;;12.45;;
20306;SDS011;10312;52.434;13.206;2022-12-07T05:24:01;22.23;;;12.18;;
20306;SDS011;10312;52.434;13.206;2022-12-07T05:26:28;26.38;;;13.35;;
20306;SDS011;10312;52.434;13.206;2022-12-07T05:28:56;26.33;;;14.18;;
20306;SDS011;10312;52.434;13.206;2022-12-07T05:31:24;26.10;;;13.13;;
20306;SDS011;10312;52.434;13.206;2022-12-07T05:33:51;27.58;;;12.75;;
20306;SDS011;10312;52.434;13.206;2022-12-07T05:36:18;27.00;;;14.45;;
20306;SDS011;10312;52.434;13.206;2022-12-07T05:38:45;27.17;;;14.70;;
20306;SDS011;10312;52.434;13.206;2022-12-07T05:41:13;29.00;;;14.65;;
20306;SDS011;10312;52.434;13.206;2022-12-07T05:44:00;28.38;;;13.48;;
20306;SDS011;10312;52.434;13.206;2022-12-07T05:46:27;34.78;;;14.45;;
20306;SDS011;10312;52.434;13.206;2022-12-07T05:48:53;31.00;;;14.82;;
20306;SDS011;10312;52.434;13.206;2022-12-07T05:51:21;34.28;;;15.18;;
20306;SDS011;10312;52.434;13.206;2022-12-07T05:53:48;29.85;;;15.45;;
20306;SDS011;10312;52.434;13.206;2022-12-07T05:56:15;27.63;;;14.35;;
20306;SDS011;10312;52.434;13.206;2022-12-07T05:58:42;27.60;;;14.23;;
20306;SDS011;10312;52.434;13.206;2022-12-07T06:01:27;28.95;;;14.68;;
20306;SDS011;10312;52.434;13.206;2022-12-07T06:03:54;27.85;;;14.00;;
20306;SDS011;10312;52.434;13.206;2022-12-07T06:06:21;30.30;;;14.93;;
20306;SDS011;10312;52.434;13.206;2022-12-07T06:08:48;35.08;;;14.85;;
20306;SDS011;10312;52.434;13.206;2022-12-07T06:11:15;35.00;;;15.68;;
20306;SDS011;10312;52.434;13.206;2022-12-07T06:14:00;32.17;;;15.68;;
20306;SDS011;10312;52.434;13.206;2022-12-07T06:16:27;30.88;;;15.27;;
20306;SDS011;10312;52.434;13.206;2022-12-07T06:18:54;29.13;;;15.73;;
20306;SDS011;10312;52.434;13.206;2022-12-07T06:21:21;32.20;;;15.73;;
20306;SDS011;10312;52.434;13.206;2022-12-07T06:23:48;33.58;;;16.35;;
20306;SDS011;10312;52.434;13.206;2022-12-07T06:26:17;30.42;;;15.23;;
20306;SDS011;10312;52.434;13.206;2022-12-07T06:28:44;29.20;;;14.77;;
20306;SDS011;10312;52.434;13.206;2022-12-07T06:31:11;30.50;;;15.10;;
20306;SDS011;10312;52.434;13.206;2022-12-07T06:33:39;34.95;;;16.30;;
20306;SDS011;10312;52.434;13.206;2022-12-07T06:36:07;31.08;;;14.85;;
20306;SDS011;10312;52.434;13.206;2022-12-07T06:38:34;29.85;;;14.90;;
20306;SDS011;10312;52.434;13.206;2022-12-07T06:41:01;31.75;;;15.68;;
20306;SDS011;10312;52.434;13.206;2022-12-07T06:43:28;29.08;;;14.77;;
20306;SDS011;10312;52.434;13.206;2022-12-07T06:45:54;25.58;;;14.65;;
20306;SDS011;10312;52.434;13.206;2022-12-07T06:48:21;31.77;;;16.27;;
20306;SDS011;10312;52.434;13.206;2022-12-07T06:50:49;34.33;;;16.75;;
20306;SDS011;10312;52.434;13.206;2022-12-07T06:53:20;29.27;;;15.60;;
20306;SDS011;10312;52.434;13.206;2022-12-07T06:55:47;29.55;;;15.77;;
20306;SDS011;10312;52.434;13.206;2022-12-07T06:58:13;30.90;;;15.57;;
20306;SDS011;10312;52.434;13.206;2022-12-07T07:00:40;29.83;;;14.88;;
20306;SDS011;10312;52.434;13.206;2022-12-07T07:03:07;28.60;;;14.65;;
20306;SDS011;10312;52.434;13.206;2022-12-07T07:05:35;29.67;;;14.02;;
20306;SDS011;10312;52.434;13.206;2022-12-07T07:08:02;28.42;;;14.85;;
20306;SDS011;10312;52.434;13.206;2022-12-07T07:10:49;27.42;;;14.63;;
20306;SDS011;10312;52.434;13.206;2022-12-07T07:13:16;31.38;;;15.52;;
20306;SDS011;10312;52.434;13.206;2022-12-07T07:15:43;29.80;;;15.35;;
20306;SDS011;10312;52.434;13.206;2022-12-07T07:18:10;27.13;;;14.75;;
20306;SDS011;10312;52.434;13.206;2022-12-07T07:20:37;28.33;;;14.75;;
20306;SDS011;10312;52.434;13.206;2022-12-07T07:23:04;24.33;;;13.45;;
20306;SDS011;10312;52.434;13.206;2022-12-07T07:25:31;27.05;;;14.13;;
20306;SDS011;10312;52.434;13.206;2022-12-07T07:27:58;28.00;;;14.50;;
20306;SDS011;10312;52.434;13.206;2022-12-07T07:30:25;27.10;;;14.52;;
20306;SDS011;10312;52.434;13.206;2022-12-07T07:33:00;28.02;;;13.93;;
20306;SDS011;10312;52.434;13.206;2022-12-07T07:35:28;24.80;;;12.68;;
20306;SDS011;10312;52.434;13.206;2022-12-07T07:37:56;26.52;;;12.93;;
20306;SDS011;10312;52.434;13.206;2022-12-07T07:40:23;25.83;;;13.38;;
20306;SDS011;10312;52.434;13.206;2022-12-07T07:42:52;22.75;;;11.85;;
20306;SDS011;10312;52.434;13.206;2022-12-07T07:45:20;28.02;;;12.88;;
20306;SDS011;10312;52.434;13.206;2022-12-07T07:47:48;25.50;;;11.63;;
20306;SDS011;10312;52.434;13.206;2022-12-07T07:50:15;24.73;;;12.07;;
20306;SDS011;10312;52.434;13.206;2022-12-07T07:52:43;18.70;;;10.70;;
20306;SDS011;10312;52.434;13.206;2022-12-07T07:55:10;21.63;;;10.90;;
20306;SDS011;10312;52.434;13.206;2022-12-07T07:57:38;21.30;;;9.68;;
20306;SDS011;10312;52.434;13.206;2022-12-07T08:00:13;21.48;;;9.63;;
20306;SDS011;10312;52.434;13.206;2022-12-07T08:02:41;17.08;;;8.88;;
20306;SDS011;10312;52.434;13.206;2022-12-07T08:05:12;21.40;;;9.32;;
20306;SDS011;10312;52.434;13.206;2022-12-07T08:07:40;16.23;;;9.20;;
20306;SDS011;10312;52.434;13.206;2022-12-07T08:10:08;15.13;;;7.82;;
20306;SDS011;10312;52.434;13.206;2022-12-07T08:12:37;15.80;;;7.47;;
20306;SDS011;10312;52.434;13.206;2022-12-07T08:15:25;16.88;;;8.32;;
20306;SDS011;10312;52.434;13.206;2022-12-07T08:17:56;14.23;;;7.90;;
20306;SDS011;10312;52.434;13.206;2022-12-07T08:20:22;12.27;;;6.95;;
20306;SDS011;10312;52.434;13.206;2022-12-07T08:22:49;10.93;;;6.82;;
20306;SDS011;10312;52.434;13.206;2022-12-07T08:25:16;10.65;;;6.00;;
20306;SDS011;10312;52.434;13.206;2022-12-07T08:27:43;10.02;;;5.63;;
20306;SDS011;10312;52.434;13.206;2022-12-07T08:30:10;8.85;;;5.30;;
20306;SDS011;10312;52.434;13.206;2022-12-07T08:32:46;11.30;;;5.55;;
20306;SDS011;10312;52.434;13.206;2022-12-07T08:35:16;11.05;;;5.40;;
20306;SDS011;10312;52.434;13.206;2022-12-07T08:37:43;8.05;;;4.78;;
20306;SDS011;10312;52.434;13.206;2022-12-07T08:40:10;12.27;;;5.05;;
20306;SDS011;10312;52.434;13.206;2022-12-07T08:42:41;9.65;;;5.43;;
20306;SDS011;10312;52.434;13.206;2022-12-07T08:45:11;8.00;;;4.82;;
20306;SDS011;10312;52.434;13.206;2022-12-07T08:47:42;6.22;;;3.83;;
20306;SDS011;10312;52.434;13.206;2022-12-07T08:50:13;6.60;;;3.72;;
20306;SDS011;10312;52.434;13.206;2022-12-07T08:52:40;5.57;;;3.25;;
20306;SDS011;10312;52.434;13.206;2022-12-07T08:55:09;5.63;;;3.47;;
20306;SDS011;10312;52.434;13.206;2022-12-07T08:57:36;5.57;;;3.25;;
20306;SDS011;10312;52.434;13.206;2022-12-07T09:00:04;5.80;;;2.85;;
20306;SDS011;10312;52.434;13.206;2022-12-07T09:02:31;7.03;;;3.08;;
20306;SDS011;10312;52.434;13.206;2022-12-07T09:04:58;3.72;;;2.47;;
20306;SDS011;10312;52.434;13.206;2022-12-07T09:07:25;4.15;;;1.90;;
20306;SDS011;10312;52.434;13.206;2022-12-07T09:09:52;2.53;;;1.80;;
20306;SDS011;10312;52.434;13.206;2022-12-07T09:12:19;3.30;;;1.90;;
20306;SDS011;10312;52.434;13.206;2022-12-07T09:14:45;4.00;;;1.73;;
20306;SDS011;10312;52.434;13.206;2022-12-07T09:17:12;2.50;;;1.63;;
20306;SDS011;10312;52.434;13.206;2022-12-07T09:19:39;3.00;;;1.83;;
20306;SDS011;10312;52.434;13.206;2022-12-07T09:22:08;2.40;;;1.88;;
20306;SDS011;10312;52.434;13.206;2022-12-07T09:24:35;4.07;;;1.98;;
20306;SDS011;10312;52.434;13.206;2022-12-07T09:27:01;3.10;;;1.90;;
20306;SDS011;10312;52.434;13.206;2022-12-07T09:29:28;4.18;;;1.73;;
20306;SDS011;10312;52.434;13.206;2022-12-07T09:31:55;3.47;;;2.10;;
20306;SDS011;10312;52.434;13.206;2022-12-07T09:34:22;3.08;;;2.00;;
20306;SDS011;10312;52.434;13.206;2022-12-07T09:36:49;2.97;;;2.00;;
20306;SDS011;10312;52.434;13.206;2022-12-07T09:39:16;3.60;;;2.30;;
20306;SDS011;10312;52.434;13.206;2022-12-07T09:41:43;3.97;;;1.88;;
20306;SDS011;10312;52.434;13.206;2022-12-07T09:44:14;4.10;;;1.67;;
20306;SDS011;10312;52.434;13.206;2022-12-07T09:46:45;2.97;;;1.67;;
20306;SDS011;10312;52.434;13.206;2022-12-07T09:49:20;3.90;;;1.73;;
20306;SDS011;10312;52.434;13.206;2022-12-07T09:51:58;2.90;;;1.90;;
20306;SDS011;10312;52.434;13.206;2022-12-07T09:54:28;2.55;;;1.55;;
20306;SDS011;10312;52.434;13.206;2022-12-07T09:56:56;4.45;;;1.60;;
20306;SDS011;10312;52.434;13.206;2022-12-07T09:59:23;3.25;;;1.52;;
20306;SDS011;10312;52.434;13.206;2022-12-07T10:01:50;2.35;;;1.40;;
20306;SDS011;10312;52.434;13.206;2022-12-07T10:04:24;3.78;;;1.70;;
20306;SDS011;10312;52.434;13.206;2022-12-07T10:06:52;3.22;;;1.67;;
20306;SDS011;10312;52.434;13.206;2022-12-07T10:09:19;4.93;;;2.38;;
20306;SDS011;10312;52.434;13.206;2022-12-07T10:12:07;2.88;;;1.95;;
20306;SDS011;10312;52.434;13.206;2022-12-07T10:14:37;5.13;;;2.47;;
20306;SDS011;10312;52.434;13.206;2022-12-07T10:17:34;4.10;;;2.17;;
20306;SDS011;10312;52.434;13.206;2022-12-07T10:23:05;4.50;;;2.58;;
20306;SDS011;10312;52.434;13.206;2022-12-07T10:25:35;5.63;;;2.55;;
20306;SDS011;10312;52.434;13.206;2022-12-07T10:28:09;3.63;;;2.40;;
20306;SDS011;10312;52.434;13.206;2022-12-07T10:33:40;6.20;;;2.53;;
20306;SDS011;10312;52.434;13.206;2022-12-07T10:38:52;6.30;;;3.15;;
20306;SDS011;10312;52.434;13.206;2022-12-07T10:41:29;6.30;;;3.30;;
20306;SDS011;10312;52.434;13.206;2022-12-07T10:43:56;5.50;;;2.97;;
20306;SDS011;10312;52.434;13.206;2022-12-07T10:51:54;7.85;;;3.28;;
20306;SDS011;10312;52.434;13.206;2022-12-07T10:54:41;4.68;;;3.10;;
20306;SDS011;10312;52.434;13.206;2022-12-07T11:00:17;5.53;;;3.30;;
20306;SDS011;10312;52.434;13.206;2022-12-07T11:05:39;5.35;;;3.20;;
20306;SDS011;10312;52.434;13.206;2022-12-07T11:11:05;6.53;;;3.03;;
20306;SDS011;10312;52.434;13.206;2022-12-07T11:18:52;7.95;;;4.10;;
20306;SDS011;10312;52.434;13.206;2022-12-07T11:35:57;7.43;;;3.05;;
20306;SDS011;10312;52.434;13.206;2022-12-07T11:38:52;6.70;;;3.10;;
20306;SDS011;10312;52.434;13.206;2022-12-07T11:41:20;4.30;;;2.45;;
20306;SDS011;10312;52.434;13.206;2022-12-07T11:46:35;6.50;;;2.53;;
20306;SDS011;10312;52.434;13.206;2022-12-07T11:55:29;5.97;;;2.80;;
20306;SDS011;10312;52.434;13.206;2022-12-07T12:03:42;6.03;;;2.60;;
20306;SDS011;10312;52.434;13.206;2022-12-07T12:06:19;7.93;;;2.50;;
20306;SDS011;10312;52.434;13.206;2022-12-07T12:15:09;7.15;;;2.65;;
20306;SDS011;10312;52.434;13.206;2022-12-07T12:20:47;6.35;;;2.28;;
20306;SDS011;10312;52.434;13.206;2022-12-07T12:23:21;6.60;;;2.80;;
20306;SDS011;10312;52.434;13.206;2022-12-07T12:25:54;5.18;;;2.53;;
20306;SDS011;10312;52.434;13.206;2022-12-07T12:31:30;6.60;;;2.72;;
20306;SDS011;10312;52.434;13.206;2022-12-07T12:34:04;6.95;;;2.58;;
20306;SDS011;10312;52.434;13.206;2022-12-07T12:36:51;5.13;;;2.30;;
20306;SDS011;10312;52.434;13.206;2022-12-07T12:39:18;5.90;;;2.35;;
20306;SDS011;10312;52.434;13.206;2022-12-07T12:51:57;5.10;;;2.08;;
20306;SDS011;10312;52.434;13.206;2022-12-07T12:54:27;5.07;;;2.20;;
20306;SDS011;10312;52.434;13.206;2022-12-07T13:02:20;5.40;;;1.98;;
20306;SDS011;10312;52.434;13.206;2022-12-07T13:13:01;7.07;;;2.35;;
20306;SDS011;10312;52.434;13.206;2022-12-07T13:21:01;5.47;;;1.90;;
20306;SDS011;10312;52.434;13.206;2022-12-07T13:37:23;7.50;;;2.47;;
20306;SDS011;10312;52.434;13.206;2022-12-07T13:39:54;5.57;;;1.77;;
20306;SDS011;10312;52.434;13.206;2022-12-07T13:42:30;6.38;;;2.17;;
20306;SDS011;10312;52.434;13.206;2022-12-07T13:44:59;7.63;;;2.13;;
20306;SDS011;10312;52.434;13.206;2022-12-07T13:47:44;5.35;;;2.47;;
20306;SDS011;10312;52.434;13.206;2022-12-07T13:50:33;9.35;;;2.22;;
20306;SDS011;10312;52.434;13.206;2022-12-07T13:53:00;3.78;;;1.90;;
20306;SDS011;10312;52.434;13.206;2022-12-07T13:55:28;7.70;;;2.20;;
20306;SDS011;10312;52.434;13.206;2022-12-07T13:57:55;6.65;;;2.17;;
20306;SDS011;10312;52.434;13.206;2022-12-07T14:00:23;4.15;;;1.98;;
20306;SDS011;10312;52.434;13.206;2022-12-07T14:03:02;6.60;;;2.08;;
20306;SDS011;10312;52.434;13.206;2022-12-07T14:05:31;6.35;;;1.80;;
20306;SDS011;10312;52.434;13.206;2022-12-07T14:08:00;6.15;;;1.77;;
20306;SDS011;10312;52.434;13.206;2022-12-07T14:13:00;4.65;;;2.10;;
20306;SDS011;10312;52.434;13.206;2022-12-07T14:15:28;5.35;;;2.10;;
20306;SDS011;10312;52.434;13.206;2022-12-07T14:17:57;6.57;;;2.25;;
20306;SDS011;10312;52.434;13.206;2022-12-07T14:20:32;5.43;;;2.15;;
20306;SDS011;10312;52.434;13.206;2022-12-07T14:23:01;8.93;;;2.38;;
20306;SDS011;10312;52.434;13.206;2022-12-07T14:25:45;6.10;;;2.50;;
20306;SDS011;10312;52.434;13.206;2022-12-07T14:30:52;10.43;;;3.22;;
20306;SDS011;10312;52.434;13.206;2022-12-07T14:33:19;5.38;;;2.45;;
20306;SDS011;10312;52.434;13.206;2022-12-07T14:35:47;5.60;;;1.90;;
20306;SDS011;10312;52.434;13.206;2022-12-07T14:38:14;7.40;;;3.75;;
20306;SDS011;10312;52.434;13.206;2022-12-07T14:40:41;4.43;;;1.77;;
20306;SDS011;10312;52.434;13.206;2022-12-07T14:43:11;4.82;;;2.10;;
20306;SDS011;10312;52.434;13.206;2022-12-07T14:45:39;6.75;;;1.95;;
20306;SDS011;10312;52.434;13.206;2022-12-07T14:48:07;7.03;;;2.28;;
20306;SDS011;10312;52.434;13.206;2022-12-07T14:50:57;3.97;;;2.08;;
20306;SDS011;10312;52.434;13.206;2022-12-07T14:53:46;5.85;;;2.22;;
20306;SDS011;10312;52.434;13.206;2022-12-07T14:56:22;10.05;;;2.53;;
20306;SDS011;10312;52.434;13.206;2022-12-07T14:58:49;5.72;;;2.28;;
20306;SDS011;10312;52.434;13.206;2022-12-07T15:01:16;9.02;;;2.33;;
20306;SDS011;10312;52.434;13.206;2022-12-07T15:03:43;5.03;;;1.90;;
20306;SDS011;10312;52.434;13.206;2022-12-07T15:06:10;7.05;;;1.92;;
20306;SDS011;10312;52.434;13.206;2022-12-07T15:08:39;3.92;;;2.05;;
20306;SDS011;10312;52.434;13.206;2022-12-07T15:11:09;9.48;;;2.03;;
20306;SDS011;10312;52.434;13.206;2022-12-07T15:13:41;4.72;;;1.90;;
20306;SDS011;10312;52.434;13.206;2022-12-07T15:16:27;5.00;;;1.55;;
20306;SDS011;10312;52.434;13.206;2022-12-07T15:19:09;7.90;;;2.00;;
20306;SDS011;10312;52.434;13.206;2022-12-07T15:21:54;6.97;;;1.85;;
20306;SDS011;10312;52.434;13.206;2022-12-07T15:24:21;10.20;;;2.35;;
20306;SDS011;10312;52.434;13.206;2022-12-07T15:26:49;6.10;;;2.03;;
20306;SDS011;10312;52.434;13.206;2022-12-07T15:29:16;5.43;;;2.00;;
20306;SDS011;10312;52.434;13.206;2022-12-07T15:31:50;7.60;;;2.08;;
20306;SDS011;10312;52.434;13.206;2022-12-07T15:34:26;6.72;;;2.38;;
20306;SDS011;10312;52.434;13.206;2022-12-07T15:37:05;4.97;;;2.20;;
20306;SDS011;10312;52.434;13.206;2022-12-07T15:39:33;5.78;;;1.90;;
20306;SDS011;10312;52.434;13.206;2022-12-07T15:42:00;4.88;;;1.70;;
20306;SDS011;10312;52.434;13.206;2022-12-07T15:44:26;5.60;;;2.20;;
20306;SDS011;10312;52.434;13.206;2022-12-07T15:47:12;8.00;;;2.67;;
20306;SDS011;10312;52.434;13.206;2022-12-07T15:49:39;9.57;;;3.42;;
20306;SDS011;10312;52.434;13.206;2022-12-07T15:52:06;8.90;;;2.25;;
20306;SDS011;10312;52.434;13.206;2022-12-07T15:54:33;6.65;;;2.92;;
20306;SDS011;10312;52.434;13.206;2022-12-07T15:57:00;10.80;;;3.45;;
20306;SDS011;10312;52.434;13.206;2022-12-07T15:59:27;9.00;;;2.92;;
20306;SDS011;10312;52.434;13.206;2022-12-07T16:01:55;8.32;;;3.10;;
20306;SDS011;10312;52.434;13.206;2022-12-07T16:04:22;8.77;;;4.72;;
20306;SDS011;10312;52.434;13.206;2022-12-07T16:06:48;7.38;;;3.22;;
20306;SDS011;10312;52.434;13.206;2022-12-07T16:09:18;8.07;;;2.80;;
20306;SDS011;10312;52.434;13.206;2022-12-07T16:11:45;6.22;;;2.28;;
20306;SDS011;10312;52.434;13.206;2022-12-07T16:14:12;7.35;;;2.88;;
20306;SDS011;10312;52.434;13.206;2022-12-07T16:16:39;6.88;;;2.70;;
20306;SDS011;10312;52.434;13.206;2022-12-07T16:19:10;11.57;;;2.70;;
20306;SDS011;10312;52.434;13.206;2022-12-07T16:21:38;4.72;;;2.20;;
20306;SDS011;10312;52.434;13.206;2022-12-07T16:24:06;4.55;;;1.70;;
20306;SDS011;10312;52.434;13.206;2022-12-07T16:26:33;6.00;;;1.95;;
20306;SDS011;10312;52.434;13.206;2022-12-07T16:29:00;7.10;;;1.95;;
20306;SDS011;10312;52.434;13.206;2022-12-07T16:31:27;7.00;;;1.95;;
20306;SDS011;10312;52.434;13.206;2022-12-07T16:33:56;7.10;;;2.20;;
20306;SDS011;10312;52.434;13.206;2022-12-07T16:36:24;4.60;;;1.77;;
20306;SDS011;10312;52.434;13.206;2022-12-07T16:39:13;7.50;;;2.47;;
20306;SDS011;10312;52.434;13.206;2022-12-07T16:41:40;4.00;;;1.98;;
20306;SDS011;10312;52.434;13.206;2022-12-07T16:44:09;6.50;;;1.90;;
20306;SDS011;10312;52.434;13.206;2022-12-07T16:46:41;5.28;;;1.90;;
20306;SDS011;10312;52.434;13.206;2022-12-07T16:49:12;7.10;;;2.15;;
20306;SDS011;10312;52.434;13.206;2022-12-07T16:51:40;7.47;;;2.47;;
20306;SDS011;10312;52.434;13.206;2022-12-07T16:54:09;4.93;;;2.05;;
20306;SDS011;10312;52.434;13.206;2022-12-07T16:56:37;6.05;;;1.98;;
20306;SDS011;10312;52.434;13.206;2022-12-07T16:59:04;6.60;;;2.03;;
20306;SDS011;10312;52.434;13.206;2022-12-07T17:01:31;3.28;;;1.33;;
20306;SDS011;10312;52.434;13.206;2022-12-07T17:03:59;5.47;;;2.53;;
20306;SDS011;10312;52.434;13.206;2022-12-07T17:06:26;6.72;;;3.30;;
20306;SDS011;10312;52.434;13.206;2022-12-07T17:08:54;6.47;;;2.40;;
20306;SDS011;10312;52.434;13.206;2022-12-07T17:11:23;10.77;;;4.95;;
20306;SDS011;10312;52.434;13.206;2022-12-07T17:13:52;11.20;;;4.40;;
20306;SDS011;10312;52.434;13.206;2022-12-07T17:16:37;5.65;;;2.90;;
20306;SDS011;10312;52.434;13.206;2022-12-07T17:19:09;6.50;;;2.97;;
20306;SDS011;10312;52.434;13.206;2022-12-07T17:21:38;5.78;;;2.47;;